createdAt,value
2018-10-01T00:00:17.957Z,10.13
2018-10-01T00:02:46.429Z,10.87
2018-10-01T00:05:14.910Z,10.83
2018-10-01T00:07:43.458Z,10.27
2018-10-01T00:10:11.925Z,11.17
2018-10-01T00:12:40.400Z,11.00
2018-10-01T00:15:08.625Z,11.60
2018-10-01T00:17:36.753Z,11.47
2018-10-01T00:20:10.605Z,10.47
2018-10-01T00:22:46.678Z,10.60
2018-10-01T00:25:14.846Z,11.97
2018-10-01T00:27:43.318Z,11.30
2018-10-01T00:30:11.780Z,12.00
2018-10-01T00:32:40.237Z,11.20
2018-10-01T00:35:08.951Z,10.80
2018-10-01T00:37:37.642Z,11.60
2018-10-01T00:40:05.848Z,11.20
2018-10-01T00:42:34.321Z,11.77
2018-10-01T00:45:02.938Z,11.90
2018-10-01T00:47:31.396Z,11.27
2018-10-01T00:49:59.542Z,11.20
2018-10-01T00:52:28.200Z,11.40
2018-10-01T00:54:56.338Z,11.50
2018-10-01T00:57:24.832Z,11.63
2018-10-01T00:59:53.313Z,10.70
2018-10-01T01:02:21.805Z,12.70
2018-10-01T01:04:50.301Z,12.70
2018-10-01T01:07:18.765Z,11.00
2018-10-01T01:09:47.436Z,11.30
2018-10-01T01:12:15.994Z,11.20
2018-10-01T01:14:44.713Z,10.60
2018-10-01T01:17:13.188Z,11.10
2018-10-01T01:19:41.328Z,10.43
2018-10-01T01:22:09.793Z,11.40
2018-10-01T01:24:39.052Z,10.17
2018-10-01T01:27:07.529Z,10.70
2018-10-01T01:29:36.136Z,9.47
2018-10-01T01:32:04.264Z,11.20
2018-10-01T01:34:32.764Z,10.40
2018-10-01T01:37:01.238Z,10.27
2018-10-01T01:39:30.043Z,9.77
2018-10-01T01:41:58.933Z,9.67
2018-10-01T01:44:27.400Z,9.47
2018-10-01T01:46:55.917Z,10.53
2018-10-01T01:49:24.108Z,9.20
2018-10-01T01:51:52.837Z,9.57
2018-10-01T01:54:21.293Z,8.87
2018-10-01T01:56:49.785Z,9.43
2018-10-01T01:59:18.249Z,9.60
2018-10-01T02:01:46.725Z,10.00
2018-10-01T02:04:15.190Z,9.43
2018-10-01T02:06:43.713Z,10.20
2018-10-01T02:09:12.548Z,9.17
2018-10-01T02:11:40.692Z,10.17
2018-10-01T02:14:09.193Z,9.10
2018-10-01T02:16:37.702Z,9.30
2018-10-01T02:19:06.184Z,8.40
2018-10-01T02:21:34.852Z,8.70
2018-10-01T02:24:03.316Z,8.17
2018-10-01T02:26:31.785Z,8.33
2018-10-01T02:29:00.292Z,8.17
2018-10-01T02:31:28.480Z,9.07
2018-10-01T02:33:56.663Z,7.80
2018-10-01T02:36:25.146Z,7.60
2018-10-01T02:38:53.611Z,7.50
2018-10-01T02:41:22.314Z,8.40
2018-10-01T02:43:50.761Z,7.00
2018-10-01T02:46:18.888Z,7.50
2018-10-01T02:48:47.610Z,6.20
2018-10-01T02:51:15.749Z,6.93
2018-10-01T02:53:49.343Z,7.67
2018-10-01T02:56:17.692Z,5.93
2018-10-01T02:58:46.214Z,7.00
2018-10-01T03:01:14.380Z,6.20
2018-10-01T03:03:42.860Z,6.33
2018-10-01T03:06:11.282Z,6.30
2018-10-01T03:08:39.741Z,6.20
2018-10-01T03:11:07.929Z,6.40
2018-10-01T03:13:36.070Z,5.77
2018-10-01T03:16:04.554Z,5.60
2018-10-01T03:18:33.008Z,6.17
2018-10-01T03:21:01.289Z,5.73
2018-10-01T03:23:29.426Z,5.80
2018-10-01T03:25:57.576Z,5.30
2018-10-01T03:28:25.717Z,4.73
2018-10-01T03:30:53.873Z,5.50
2018-10-01T03:33:22.012Z,5.07
2018-10-01T03:35:50.485Z,5.50
2018-10-01T03:38:18.960Z,4.90
2018-10-01T03:40:47.427Z,4.73
2018-10-01T03:43:15.903Z,5.00
2018-10-01T03:45:44.528Z,5.07
2018-10-01T03:48:12.997Z,3.87
2018-10-01T03:50:41.676Z,5.50
2018-10-01T03:53:10.518Z,5.10
2018-10-01T03:55:38.880Z,4.00
2018-10-01T03:58:07.390Z,5.07
2018-10-01T04:00:36.113Z,4.40
2018-10-01T04:03:04.658Z,4.40
2018-10-01T04:05:33.248Z,4.87
2018-10-01T04:08:01.724Z,4.50
2018-10-01T04:10:30.188Z,4.40
2018-10-01T04:12:58.636Z,4.90
2018-10-01T04:15:27.110Z,4.47
2018-10-01T04:17:55.590Z,4.23
2018-10-01T04:20:24.057Z,4.77
2018-10-01T04:22:52.569Z,4.90
2018-10-01T04:25:21.232Z,3.73
2018-10-01T04:27:49.380Z,4.80
2018-10-01T04:30:17.845Z,3.80
2018-10-01T04:32:46.301Z,4.43
2018-10-01T04:35:15.075Z,4.37
2018-10-01T04:37:43.549Z,3.73
2018-10-01T04:40:21.170Z,4.70
2018-10-01T04:42:49.672Z,4.17
2018-10-01T04:45:17.808Z,4.13
2018-10-01T04:47:46.405Z,4.30
2018-10-01T04:50:14.869Z,4.57
2018-10-01T04:52:43.416Z,3.70
2018-10-01T04:55:11.885Z,3.70
2018-10-01T04:57:40.352Z,4.20
2018-10-01T05:00:08.709Z,4.07
2018-10-01T05:02:36.837Z,4.00
2018-10-01T05:05:05.336Z,3.20
2018-10-01T05:07:33.846Z,3.13
2018-10-01T05:10:02.323Z,3.93
2018-10-01T05:12:30.801Z,3.60
2018-10-01T05:14:59.309Z,4.03
2018-10-01T05:17:27.974Z,4.03
2018-10-01T05:19:56.600Z,3.67
2018-10-01T05:22:25.107Z,3.50
2018-10-01T05:24:53.556Z,3.07
2018-10-01T05:27:26.914Z,3.77
2018-10-01T05:29:57.443Z,3.37
2018-10-01T05:32:25.938Z,3.57
2018-10-01T05:34:54.065Z,3.30
2018-10-01T05:37:22.540Z,2.80
2018-10-01T05:39:51.000Z,3.40
2018-10-01T05:42:19.744Z,3.07
2018-10-01T05:44:48.203Z,3.63
2018-10-01T05:47:16.892Z,3.00
2018-10-01T05:52:25.730Z,3.40
2018-10-01T05:54:54.392Z,3.70
2018-10-01T05:57:22.533Z,3.57
2018-10-01T05:59:50.686Z,4.03
2018-10-01T06:02:19.157Z,3.17
2018-10-01T06:04:47.307Z,4.87
2018-10-01T06:07:15.978Z,3.60
2018-10-01T06:09:44.454Z,3.50
2018-10-01T06:12:13.040Z,3.13
2018-10-01T06:14:41.527Z,3.03
2018-10-01T06:17:09.919Z,2.83
2018-10-01T06:19:38.424Z,3.30
2018-10-01T06:22:07.186Z,2.53
2018-10-01T06:24:35.934Z,3.20
2018-10-01T06:27:04.423Z,3.33
2018-10-01T06:29:33.039Z,2.20
2018-10-01T06:32:01.484Z,2.53
2018-10-01T06:34:30.898Z,2.30
2018-10-01T06:36:59.562Z,2.37
2018-10-01T06:39:27.747Z,2.83
2018-10-01T06:41:56.488Z,3.00
2018-10-01T06:44:25.129Z,2.77
2018-10-01T06:46:53.576Z,3.37
2018-10-01T06:49:22.049Z,2.30
2018-10-01T06:51:50.497Z,2.00
2018-10-01T06:54:19.188Z,2.27
2018-10-01T06:56:47.655Z,2.47
2018-10-01T06:59:16.388Z,2.63
2018-10-01T07:01:45.006Z,1.87
2018-10-01T07:04:13.456Z,3.10
2018-10-01T07:06:41.942Z,2.43
2018-10-01T07:09:11.305Z,2.10
2018-10-01T07:11:40.553Z,1.70
2018-10-01T07:14:09.329Z,2.00
2018-10-01T07:16:37.715Z,1.90
2018-10-01T07:19:06.139Z,2.73
2018-10-01T07:21:34.948Z,2.73
2018-10-01T07:24:03.413Z,2.03
2018-10-01T07:26:32.096Z,2.83
2018-10-01T07:29:01.073Z,1.67
2018-10-01T07:31:29.586Z,1.93
2018-10-01T07:33:58.040Z,2.03
2018-10-01T07:36:26.521Z,1.83
2018-10-01T07:38:55.009Z,1.77
2018-10-01T07:43:45.396Z,1.63
2018-10-01T07:46:18.381Z,1.90
2018-10-01T07:48:48.069Z,2.20
2018-10-01T07:51:17.362Z,2.37
2018-10-01T07:53:46.349Z,2.23
2018-10-01T07:56:15.374Z,2.60
2018-10-01T07:58:44.649Z,2.70
2018-10-01T08:01:14.240Z,2.00
2018-10-01T08:03:43.521Z,2.50
2018-10-01T08:06:12.829Z,1.40
2018-10-01T08:08:42.293Z,1.90
2018-10-01T08:11:11.399Z,2.10
2018-10-01T08:13:40.665Z,1.70
2018-10-01T08:16:09.677Z,2.60
2018-10-01T08:18:39.133Z,1.90
2018-10-01T08:21:08.817Z,2.07
2018-10-01T08:23:38.282Z,1.40
2018-10-01T08:26:07.540Z,1.73
2018-10-01T08:28:36.628Z,2.80
2018-10-01T08:31:07.221Z,2.33
2018-10-01T08:33:36.169Z,1.90
2018-10-01T08:36:05.516Z,1.80
2018-10-01T08:38:34.778Z,1.33
2018-10-01T08:41:04.269Z,1.77
2018-10-01T08:43:33.417Z,1.60
2018-10-01T08:46:02.881Z,1.30
2018-10-01T08:48:32.001Z,1.60
2018-10-01T08:51:01.142Z,1.77
2018-10-01T08:53:30.205Z,1.73
2018-10-01T08:55:59.339Z,1.40
2018-10-01T08:58:28.345Z,1.30
2018-10-01T09:00:57.630Z,1.67
2018-10-01T09:03:26.903Z,1.37
2018-10-01T09:05:56.513Z,1.63
2018-10-01T09:08:25.808Z,1.53
2018-10-01T09:10:55.018Z,1.00
2018-10-01T09:13:24.156Z,1.43
2018-10-01T09:15:53.686Z,1.10
2018-10-01T09:18:23.538Z,1.20
2018-10-01T09:20:52.812Z,1.20
2018-10-01T09:23:22.402Z,1.30
2018-10-01T09:25:51.893Z,1.50
2018-10-01T09:28:21.218Z,1.27
2018-10-01T09:30:50.544Z,0.80
2018-10-01T09:33:20.585Z,1.10
2018-10-01T09:35:49.872Z,1.30
2018-10-01T09:38:19.121Z,0.85
2018-10-01T09:40:48.921Z,1.53
2018-10-01T09:43:18.489Z,0.90
2018-10-01T09:45:47.788Z,0.97
2018-10-01T09:48:17.305Z,1.20
2018-10-01T09:50:46.578Z,0.63
2018-10-01T09:53:15.869Z,1.23
2018-10-01T09:55:45.439Z,0.83
2018-10-01T09:58:14.799Z,0.67
2018-10-01T10:00:44.217Z,0.80
2018-10-01T10:03:13.754Z,0.85
2018-10-01T10:05:43.033Z,0.80
2018-10-01T10:08:12.661Z,0.70
2018-10-01T10:10:42.370Z,1.00
2018-10-01T10:13:11.936Z,0.90
2018-10-01T10:15:41.496Z,0.80
2018-10-01T10:18:11.064Z,0.80
2018-10-01T10:20:40.209Z,1.20
2018-10-01T10:23:09.992Z,0.70
2018-10-01T10:25:39.590Z,0.90
2018-10-01T10:28:08.939Z,0.60
2018-10-01T10:30:38.369Z,1.60
2018-10-01T10:33:07.933Z,0.67
2018-10-01T10:35:36.898Z,1.00
2018-10-01T10:38:07.756Z,0.90
2018-10-01T10:40:37.222Z,1.00
2018-10-01T10:43:07.961Z,0.88
2018-10-01T10:45:37.790Z,0.90
2018-10-01T10:48:07.652Z,1.15
2018-10-01T10:50:36.874Z,0.80
2018-10-01T10:53:07.677Z,0.77
2018-10-01T10:55:36.676Z,1.00
2018-10-01T10:58:05.393Z,0.90
2018-10-01T11:00:34.665Z,0.93
2018-10-01T11:03:03.950Z,0.60
2018-10-01T11:05:33.231Z,0.73
2018-10-01T11:08:02.775Z,0.80
2018-10-01T11:10:32.486Z,0.80
2018-10-01T11:13:01.761Z,0.50
2018-10-01T11:15:30.742Z,0.63
2018-10-01T11:18:00.205Z,0.60
2018-10-01T11:20:29.961Z,0.60
2018-10-01T11:22:59.704Z,0.60
2018-10-01T11:25:29.062Z,0.90
2018-10-01T11:27:58.816Z,0.87
2018-10-01T11:30:28.111Z,0.50
2018-10-01T11:32:57.826Z,0.87
2018-10-01T11:35:27.357Z,0.63
2018-10-01T11:37:56.778Z,1.20
2018-10-01T11:40:26.049Z,0.90
2018-10-01T11:42:55.284Z,0.98
2018-10-01T11:45:24.967Z,0.80
2018-10-01T11:47:54.458Z,0.77
2018-10-01T11:50:23.985Z,0.90
2018-10-01T11:52:53.665Z,0.70
2018-10-01T11:55:23.009Z,1.05
2018-10-01T11:57:52.315Z,0.80
2018-10-01T12:00:22.796Z,0.83
2018-10-01T12:02:51.750Z,0.70
2018-10-01T12:05:21.292Z,1.10
2018-10-01T12:07:50.864Z,0.67
2018-10-01T12:10:20.324Z,0.70
2018-10-01T12:12:49.830Z,0.60
2018-10-01T12:15:19.169Z,0.90
2018-10-01T12:17:48.900Z,0.80
2018-10-01T12:20:18.199Z,0.77
2018-10-01T12:22:47.765Z,0.80
2018-10-01T12:25:17.292Z,1.00
2018-10-01T12:27:46.829Z,1.00
2018-10-01T12:30:16.301Z,0.80
2018-10-01T12:32:45.889Z,0.80
2018-10-01T12:35:15.163Z,1.50
2018-10-01T12:37:44.779Z,1.30
2018-10-01T12:40:13.898Z,0.90
2018-10-01T12:42:49.069Z,0.90
2018-10-01T12:45:18.635Z,1.80
2018-10-01T12:47:48.058Z,1.50
2018-10-01T12:50:17.461Z,1.10
2018-10-01T12:52:46.952Z,1.20
2018-10-01T12:55:16.246Z,1.17
2018-10-01T12:57:45.898Z,1.10
2018-10-01T13:00:16.533Z,1.73
2018-10-01T13:02:46.014Z,1.40
2018-10-01T13:05:15.349Z,1.03
2018-10-01T13:07:45.112Z,1.17
2018-10-01T13:10:14.186Z,1.03
2018-10-01T13:12:44.352Z,1.40
2018-10-01T13:15:17.739Z,1.10
2018-10-01T13:17:50.335Z,0.83
2018-10-01T13:20:21.917Z,1.20
2018-10-01T13:22:51.380Z,1.30
2018-10-01T13:25:20.624Z,1.00
2018-10-01T13:27:50.100Z,1.10
2018-10-01T13:30:20.251Z,1.20
2018-10-01T13:32:49.641Z,1.20
2018-10-01T13:35:19.214Z,1.15
2018-10-01T13:37:51.807Z,1.20
2018-10-01T13:40:24.752Z,1.52
2018-10-01T13:42:54.217Z,1.60
2018-10-01T13:45:23.391Z,1.37
2018-10-01T13:47:52.956Z,1.20
2018-10-01T13:50:23.081Z,1.07
2018-10-01T13:52:52.992Z,1.33
2018-10-01T13:55:24.400Z,1.05
2018-10-01T13:57:54.204Z,1.40
2018-10-01T14:00:23.745Z,1.47
2018-10-01T14:02:54.789Z,1.30
2018-10-01T14:05:24.325Z,1.07
2018-10-01T14:07:53.377Z,1.37
2018-10-01T14:10:22.662Z,1.17
2018-10-01T14:12:52.095Z,1.33
2018-10-01T14:15:23.530Z,1.32
2018-10-01T14:17:54.015Z,1.40
2018-10-01T14:20:23.822Z,1.55
2018-10-01T14:22:53.153Z,1.40
2018-10-01T14:25:22.761Z,1.30
2018-10-01T14:27:51.882Z,1.13
2018-10-01T14:30:21.672Z,1.53
2018-10-01T14:32:51.209Z,1.33
2018-10-01T14:35:20.443Z,1.53
2018-10-01T14:37:50.005Z,1.40
2018-10-01T14:40:19.641Z,1.50
2018-10-01T14:42:48.907Z,0.97
2018-10-01T14:45:18.845Z,1.60
2018-10-01T14:47:48.380Z,1.20
2018-10-01T14:50:17.581Z,1.07
2018-10-01T14:52:46.856Z,0.60
2018-10-01T14:55:16.262Z,0.80
2018-10-01T14:57:45.546Z,0.90
2018-10-01T15:00:14.625Z,0.70
2018-10-01T15:02:44.365Z,0.70
2018-10-01T15:05:13.653Z,0.80
2018-10-01T15:07:43.213Z,0.78
2018-10-01T15:10:12.213Z,1.07
2018-10-01T15:12:41.289Z,0.90
2018-10-01T15:15:10.743Z,0.93
2018-10-01T15:17:40.824Z,0.93
2018-10-01T15:20:10.388Z,1.27
2018-10-01T15:22:39.654Z,1.30
2018-10-01T15:25:08.712Z,1.10
2018-10-01T15:27:38.324Z,0.77
2018-10-01T15:30:07.910Z,1.00
2018-10-01T15:32:37.423Z,0.80
2018-10-01T15:35:06.372Z,1.00
2018-10-01T15:37:35.647Z,1.10
2018-10-01T15:40:05.042Z,1.27
2018-10-01T15:42:34.354Z,1.13
2018-10-01T15:45:03.313Z,1.10
2018-10-01T15:47:32.584Z,0.90
2018-10-01T15:50:01.828Z,1.00
2018-10-01T15:52:30.990Z,1.00
2018-10-01T15:55:00.412Z,0.90
2018-10-01T15:57:29.453Z,0.80
2018-10-01T15:59:58.726Z,0.70
2018-10-01T16:02:27.805Z,1.10
2018-10-01T16:04:57.435Z,1.20
2018-10-01T16:07:26.720Z,1.17
2018-10-01T16:09:55.662Z,0.83
2018-10-01T16:12:24.951Z,1.30
2018-10-01T16:14:55.080Z,0.85
2018-10-01T16:17:24.320Z,1.32
2018-10-01T16:19:53.605Z,1.70
2018-10-01T16:22:22.890Z,1.00
2018-10-01T16:24:51.652Z,1.10
2018-10-01T16:27:20.998Z,1.37
2018-10-01T16:29:50.605Z,1.13
2018-10-01T16:32:19.957Z,1.07
2018-10-01T16:34:49.490Z,1.27
2018-10-01T16:37:18.774Z,1.57
2018-10-01T16:39:48.341Z,1.40
2018-10-01T16:42:17.370Z,1.90
2018-10-01T16:44:46.784Z,0.90
2018-10-01T16:47:16.080Z,1.90
2018-10-01T16:49:49.123Z,1.50
2018-10-01T16:52:22.505Z,1.03
2018-10-01T16:54:52.553Z,1.10
2018-10-01T16:57:21.596Z,1.30
2018-10-01T16:59:50.546Z,1.23
2018-10-01T17:02:20.105Z,1.30
2018-10-01T17:04:49.430Z,1.13
2018-10-01T17:07:18.708Z,1.00
2018-10-01T17:09:47.981Z,1.00
2018-10-01T17:12:16.955Z,1.25
2018-10-01T17:14:46.885Z,1.20
2018-10-01T17:17:15.941Z,1.07
2018-10-01T17:19:45.492Z,0.90
2018-10-01T17:22:14.900Z,1.07
2018-10-01T17:24:47.144Z,1.13
2018-10-01T17:30:00.941Z,0.90
2018-10-01T17:32:30.692Z,0.75
2018-10-01T17:34:59.962Z,0.90
2018-10-01T17:37:29.554Z,0.78
2018-10-01T17:39:58.829Z,1.37
2018-10-01T17:42:28.128Z,0.83
2018-10-01T17:44:57.449Z,0.90
2018-10-01T17:47:26.822Z,1.10
2018-10-01T17:49:56.088Z,1.20
2018-10-01T17:52:25.683Z,0.90
2018-10-01T17:54:54.957Z,2.57
2018-10-01T17:57:24.244Z,3.37
2018-10-01T17:59:53.855Z,2.83
2018-10-01T18:02:23.316Z,1.87
2018-10-01T18:04:52.272Z,0.80
2018-10-01T18:07:21.993Z,1.23
2018-10-01T18:09:51.277Z,1.13
2018-10-01T18:12:20.922Z,1.33
2018-10-01T18:14:50.315Z,1.33
2018-10-01T18:17:19.901Z,1.10
2018-10-01T18:19:49.173Z,0.97
2018-10-01T18:22:18.417Z,1.07
2018-10-01T18:24:47.772Z,1.50
2018-10-01T18:27:18.008Z,1.23
2018-10-01T18:29:51.402Z,1.60
2018-10-01T18:32:23.057Z,1.50
2018-10-01T18:34:52.067Z,0.93
2018-10-01T18:37:21.325Z,2.50
2018-10-01T18:39:50.824Z,1.83
2018-10-01T18:42:20.147Z,1.60
2018-10-01T18:44:49.318Z,1.17
2018-10-01T18:47:18.924Z,0.97
2018-10-01T18:49:48.205Z,1.23
2018-10-01T18:52:17.790Z,1.32
2018-10-01T18:54:46.897Z,1.20
2018-10-01T18:57:16.985Z,1.17
2018-10-01T18:59:46.256Z,1.30
2018-10-01T19:02:16.042Z,1.50
2018-10-01T19:04:45.036Z,2.53
2018-10-01T19:07:14.340Z,1.47
2018-10-01T19:09:43.108Z,1.73
2018-10-01T19:12:13.003Z,1.30
2018-10-01T19:14:42.473Z,1.40
2018-10-01T19:17:12.354Z,1.40
2018-10-01T19:19:41.959Z,1.13
2018-10-01T19:22:11.312Z,1.23
2018-10-01T19:24:42.324Z,1.40
2018-10-01T19:27:13.117Z,1.27
2018-10-01T19:29:42.314Z,1.20
2018-10-01T19:32:11.146Z,1.23
2018-10-01T19:34:42.327Z,1.63
2018-10-01T19:37:28.204Z,1.22
2018-10-01T19:39:59.520Z,1.40
2018-10-01T19:42:28.973Z,1.47
2018-10-01T19:44:58.168Z,3.20
2018-10-01T19:47:27.318Z,2.13
2018-10-01T19:49:56.593Z,1.77
2018-10-01T19:52:25.595Z,1.70
2018-10-01T19:54:54.281Z,1.20
2018-10-01T19:57:23.866Z,1.62
2018-10-01T19:59:52.951Z,2.10
2018-10-01T20:02:22.380Z,1.17
2018-10-01T20:04:54.644Z,1.20
2018-10-01T20:07:25.116Z,1.80
2018-10-01T20:09:56.104Z,1.50
2018-10-01T20:12:25.284Z,1.23
2018-10-01T20:14:54.617Z,1.70
2018-10-01T20:17:24.552Z,2.20
2018-10-01T20:19:54.197Z,1.83
2018-10-01T20:22:23.601Z,1.37
2018-10-01T20:24:53.060Z,1.67
2018-10-01T20:27:22.548Z,1.20
2018-10-01T20:29:52.229Z,1.20
2018-10-01T20:32:21.995Z,1.75
2018-10-01T20:34:51.499Z,1.43
2018-10-01T20:37:21.215Z,1.52
2018-10-01T20:39:50.496Z,1.43
2018-10-01T20:42:19.799Z,1.30
2018-10-01T20:44:49.248Z,1.30
2018-10-01T20:47:18.860Z,1.10
2018-10-01T20:49:48.475Z,1.27
2018-10-01T20:52:18.222Z,1.32
2018-10-01T20:54:47.686Z,1.53
2018-10-01T20:57:17.248Z,1.25
2018-10-01T20:59:46.523Z,2.03
2018-10-01T21:02:16.096Z,1.92
2018-10-01T21:04:45.591Z,1.43
2018-10-01T21:07:15.436Z,1.40
2018-10-01T21:09:44.986Z,1.10
2018-10-01T21:12:14.572Z,1.53
2018-10-01T21:14:44.135Z,1.35
2018-10-01T21:17:13.447Z,1.72
2018-10-01T21:19:42.724Z,1.30
2018-10-01T21:22:12.291Z,1.70
2018-10-01T21:24:41.633Z,1.83
2018-10-01T21:27:11.193Z,1.47
2018-10-01T21:29:40.146Z,1.43
2018-10-01T21:32:09.697Z,1.97
2018-10-01T21:34:39.472Z,1.65
2018-10-01T21:37:09.610Z,1.55
2018-10-01T21:39:38.613Z,2.10
2018-10-01T21:42:09.237Z,2.00
2018-10-01T21:44:38.521Z,1.50
2018-10-01T21:47:07.795Z,1.60
2018-10-01T21:49:37.067Z,2.03
2018-10-01T21:52:06.197Z,2.13
2018-10-01T21:54:35.726Z,1.90
2018-10-01T21:57:10.385Z,1.90
2018-10-01T21:59:41.340Z,1.70
2018-10-01T22:02:11.517Z,2.10
2018-10-01T22:04:40.585Z,1.53
2018-10-01T22:07:09.538Z,2.10
2018-10-01T22:09:38.585Z,1.80
2018-10-01T22:12:07.384Z,1.90
2018-10-01T22:14:36.677Z,2.53
2018-10-01T22:17:05.944Z,1.50
2018-10-01T22:19:35.443Z,2.23
2018-10-01T22:22:04.381Z,1.77
2018-10-01T22:24:33.333Z,1.87
2018-10-01T22:27:07.154Z,1.67
2018-10-01T22:29:38.061Z,1.60
2018-10-01T22:32:15.374Z,1.80
2018-10-01T22:34:45.045Z,1.80
2018-10-01T22:37:14.630Z,2.27
2018-10-01T22:39:43.900Z,2.10
2018-10-01T22:42:13.351Z,2.30
2018-10-01T22:44:42.624Z,2.17
2018-10-01T22:47:11.901Z,2.00
2018-10-01T22:49:41.469Z,1.80
2018-10-01T22:52:11.588Z,2.00
2018-10-01T22:54:40.881Z,1.87
2018-10-01T22:57:10.435Z,1.93
2018-10-01T22:59:40.093Z,2.00
2018-10-01T23:02:09.811Z,2.10
2018-10-01T23:04:39.091Z,2.20
2018-10-01T23:07:09.594Z,2.00
2018-10-01T23:09:38.900Z,1.67
2018-10-01T23:12:09.521Z,2.10
2018-10-01T23:14:38.783Z,1.57
2018-10-01T23:17:08.061Z,1.97
2018-10-01T23:19:37.664Z,1.90
2018-10-01T23:22:06.936Z,1.77
2018-10-01T23:24:36.480Z,1.63
2018-10-01T23:27:05.424Z,1.43
2018-10-01T23:29:34.688Z,1.90
2018-10-01T23:32:03.975Z,2.63
2018-10-01T23:34:33.616Z,1.80
2018-10-01T23:37:02.896Z,1.60
2018-10-01T23:39:32.447Z,1.80
2018-10-01T23:42:01.719Z,2.37
2018-10-01T23:44:30.987Z,1.90
2018-10-01T23:47:01.168Z,2.00
2018-10-01T23:49:30.643Z,2.73
2018-10-01T23:51:59.920Z,2.03
2018-10-01T23:54:29.467Z,2.58
2018-10-01T23:56:58.736Z,2.10
2018-10-01T23:59:27.668Z,2.40
